sensor_id;sensor_type;location;lat;lon;timestamp;temperature;humidity
19397;DHT22;9834;48.076;11.878;2022-08-25T00:01:49;15.40;99.90
19397;DHT22;9834;48.076;11.878;2022-08-25T00:04:17;15.40;99.90
19397;DHT22;9834;48.076;11.878;2022-08-25T00:06:45;15.30;99.90
19397;DHT22;9834;48.076;11.878;2022-08-25T00:09:14;15.30;99.90
19397;DHT22;9834;48.076;11.878;2022-08-25T00:11:42;15.20;99.90
19397;DHT22;9834;48.076;11.878;2022-08-25T00:14:18;15.20;99.90
19397;DHT22;9834;48.076;11.878;2022-08-25T00:16:46;15.10;99.90
19397;DHT22;9834;48.076;11.878;2022-08-25T00:19:15;15.10;99.90
19397;DHT22;9834;48.076;11.878;2022-08-25T00:21:44;15.00;99.90
19397;DHT22;9834;48.076;11.878;2022-08-25T00:24:13;15.00;99.90
19397;DHT22;9834;48.076;11.878;2022-08-25T00:26:45;15.00;99.90
19397;DHT22;9834;48.076;11.878;2022-08-25T00:29:14;14.90;99.90
19397;DHT22;9834;48.076;11.878;2022-08-25T00:31:42;14.90;99.90
19397;DHT22;9834;48.076;11.878;2022-08-25T00:34:11;14.80;99.90
19397;DHT22;9834;48.076;11.878;2022-08-25T00:36:40;14.80;99.90
19397;DHT22;9834;48.076;11.878;2022-08-25T00:39:09;14.80;99.90
19397;DHT22;9834;48.076;11.878;2022-08-25T00:41:37;14.70;99.90
19397;DHT22;9834;48.076;11.878;2022-08-25T00:44:07;14.70;99.90
19397;DHT22;9834;48.076;11.878;2022-08-25T00:46:44;14.70;99.90
19397;DHT22;9834;48.076;11.878;2022-08-25T00:49:14;14.60;99.90
19397;DHT22;9834;48.076;11.878;2022-08-25T00:51:47;14.60;99.90
19397;DHT22;9834;48.076;11.878;2022-08-25T00:54:18;14.60;99.90
19397;DHT22;9834;48.076;11.878;2022-08-25T00:56:47;14.60;99.90
19397;DHT22;9834;48.076;11.878;2022-08-25T00:59:16;14.60;99.90
19397;DHT22;9834;48.076;11.878;2022-08-25T01:01:46;14.50;99.90
19397;DHT22;9834;48.076;11.878;2022-08-25T01:04:13;14.50;99.90
19397;DHT22;9834;48.076;11.878;2022-08-25T01:06:41;14.40;99.90
19397;DHT22;9834;48.076;11.878;2022-08-25T01:09:10;14.40;99.90
19397;DHT22;9834;48.076;11.878;2022-08-25T01:11:38;14.30;99.90
19397;DHT22;9834;48.076;11.878;2022-08-25T01:14:06;14.30;99.90
19397;DHT22;9834;48.076;11.878;2022-08-25T01:16:37;14.30;99.90
19397;DHT22;9834;48.076;11.878;2022-08-25T01:19:07;14.30;99.90
19397;DHT22;9834;48.076;11.878;2022-08-25T01:21:41;14.20;99.90
19397;DHT22;9834;48.076;11.878;2022-08-25T01:24:12;14.20;99.90
19397;DHT22;9834;48.076;11.878;2022-08-25T01:26:41;14.20;99.90
19397;DHT22;9834;48.076;11.878;2022-08-25T01:29:09;14.10;99.90
19397;DHT22;9834;48.076;11.878;2022-08-25T01:31:52;14.10;99.90
19397;DHT22;9834;48.076;11.878;2022-08-25T01:34:23;14.10;99.90
19397;DHT22;9834;48.076;11.878;2022-08-25T01:36:52;14.10;99.90
19397;DHT22;9834;48.076;11.878;2022-08-25T01:39:20;14.10;99.90
19397;DHT22;9834;48.076;11.878;2022-08-25T01:42:02;14.10;99.90
19397;DHT22;9834;48.076;11.878;2022-08-25T01:44:35;14.10;99.90
19397;DHT22;9834;48.076;11.878;2022-08-25T01:47:04;14.10;99.90
19397;DHT22;9834;48.076;11.878;2022-08-25T01:49:31;14.20;99.90
19397;DHT22;9834;48.076;11.878;2022-08-25T01:52:04;14.20;99.90
19397;DHT22;9834;48.076;11.878;2022-08-25T01:54:32;14.30;99.90
19397;DHT22;9834;48.076;11.878;2022-08-25T01:56:59;14.30;99.90
19397;DHT22;9834;48.076;11.878;2022-08-25T01:59:26;14.30;99.90
19397;DHT22;9834;48.076;11.878;2022-08-25T02:01:53;14.20;99.90
19397;DHT22;9834;48.076;11.878;2022-08-25T02:04:20;14.20;99.90
19397;DHT22;9834;48.076;11.878;2022-08-25T02:06:47;14.10;99.90
19397;DHT22;9834;48.076;11.878;2022-08-25T02:09:18;14.10;99.90
19397;DHT22;9834;48.076;11.878;2022-08-25T02:11:48;14.10;99.90
19397;DHT22;9834;48.076;11.878;2022-08-25T02:14:15;14.00;99.90
19397;DHT22;9834;48.076;11.878;2022-08-25T02:16:46;14.00;99.90
19397;DHT22;9834;48.076;11.878;2022-08-25T02:19:16;14.00;99.90
19397;DHT22;9834;48.076;11.878;2022-08-25T02:21:44;14.00;99.90
19397;DHT22;9834;48.076;11.878;2022-08-25T02:24:12;14.00;99.90
19397;DHT22;9834;48.076;11.878;2022-08-25T02:26:41;14.00;99.90
19397;DHT22;9834;48.076;11.878;2022-08-25T02:29:09;14.00;99.90
19397;DHT22;9834;48.076;11.878;2022-08-25T02:31:37;14.00;99.90
19397;DHT22;9834;48.076;11.878;2022-08-25T02:34:04;14.00;99.90
19397;DHT22;9834;48.076;11.878;2022-08-25T02:36:31;14.00;99.90
19397;DHT22;9834;48.076;11.878;2022-08-25T02:38:59;14.00;99.90
19397;DHT22;9834;48.076;11.878;2022-08-25T02:41:27;14.00;99.90
19397;DHT22;9834;48.076;11.878;2022-08-25T02:43:57;14.00;99.90
19397;DHT22;9834;48.076;11.878;2022-08-25T02:46:24;14.00;99.90
19397;DHT22;9834;48.076;11.878;2022-08-25T02:48:52;14.10;99.90
19397;DHT22;9834;48.076;11.878;2022-08-25T02:51:21;14.30;99.90
19397;DHT22;9834;48.076;11.878;2022-08-25T02:53:50;14.30;99.90
19397;DHT22;9834;48.076;11.878;2022-08-25T02:56:18;14.40;99.90
19397;DHT22;9834;48.076;11.878;2022-08-25T02:58:46;14.50;99.90
19397;DHT22;9834;48.076;11.878;2022-08-25T03:01:15;14.50;99.90
19397;DHT22;9834;48.076;11.878;2022-08-25T03:03:44;14.50;99.90
19397;DHT22;9834;48.076;11.878;2022-08-25T03:06:12;14.50;99.90
19397;DHT22;9834;48.076;11.878;2022-08-25T03:08:41;14.50;99.90
19397;DHT22;9834;48.076;11.878;2022-08-25T03:11:09;14.50;99.90
19397;DHT22;9834;48.076;11.878;2022-08-25T03:13:37;14.50;99.90
19397;DHT22;9834;48.076;11.878;2022-08-25T03:16:06;14.50;99.90
19397;DHT22;9834;48.076;11.878;2022-08-25T03:18:35;14.50;99.90
19397;DHT22;9834;48.076;11.878;2022-08-25T03:21:02;14.40;99.90
19397;DHT22;9834;48.076;11.878;2022-08-25T03:23:29;14.40;99.90
19397;DHT22;9834;48.076;11.878;2022-08-25T03:25:56;14.40;99.90
19397;DHT22;9834;48.076;11.878;2022-08-25T03:28:41;14.40;99.90
19397;DHT22;9834;48.076;11.878;2022-08-25T03:31:09;14.40;99.90
19397;DHT22;9834;48.076;11.878;2022-08-25T03:33:37;14.40;99.90
19397;DHT22;9834;48.076;11.878;2022-08-25T03:36:05;14.40;99.90
19397;DHT22;9834;48.076;11.878;2022-08-25T03:38:33;14.50;99.90
19397;DHT22;9834;48.076;11.878;2022-08-25T03:41:00;14.40;99.90
19397;DHT22;9834;48.076;11.878;2022-08-25T03:43:27;14.40;99.90
19397;DHT22;9834;48.076;11.878;2022-08-25T03:45:55;14.40;99.90
19397;DHT22;9834;48.076;11.878;2022-08-25T03:48:22;14.40;99.90
19397;DHT22;9834;48.076;11.878;2022-08-25T03:50:51;14.40;99.90
19397;DHT22;9834;48.076;11.878;2022-08-25T03:53:19;14.30;99.90
19397;DHT22;9834;48.076;11.878;2022-08-25T03:55:46;14.30;99.90
19397;DHT22;9834;48.076;11.878;2022-08-25T03:58:13;14.30;99.90
19397;DHT22;9834;48.076;11.878;2022-08-25T04:00:40;14.40;99.90
19397;DHT22;9834;48.076;11.878;2022-08-25T04:03:07;14.40;99.90
19397;DHT22;9834;48.076;11.878;2022-08-25T04:05:34;14.40;99.90
19397;DHT22;9834;48.076;11.878;2022-08-25T04:08:03;14.40;99.90
19397;DHT22;9834;48.076;11.878;2022-08-25T04:10:32;14.40;99.90
19397;DHT22;9834;48.076;11.878;2022-08-25T04:12:59;14.40;99.90
19397;DHT22;9834;48.076;11.878;2022-08-25T04:15:27;14.50;99.90
19397;DHT22;9834;48.076;11.878;2022-08-25T04:17:54;14.60;99.90
19397;DHT22;9834;48.076;11.878;2022-08-25T04:20:21;14.60;99.90
19397;DHT22;9834;48.076;11.878;2022-08-25T04:22:48;14.70;99.90
19397;DHT22;9834;48.076;11.878;2022-08-25T04:25:17;14.70;99.90
19397;DHT22;9834;48.076;11.878;2022-08-25T04:27:44;14.70;99.90
19397;DHT22;9834;48.076;11.878;2022-08-25T04:30:12;14.70;99.90
19397;DHT22;9834;48.076;11.878;2022-08-25T04:32:39;14.70;99.90
19397;DHT22;9834;48.076;11.878;2022-08-25T04:35:07;14.70;99.90
19397;DHT22;9834;48.076;11.878;2022-08-25T04:41:22;14.70;99.90
19397;DHT22;9834;48.076;11.878;2022-08-25T04:43:54;14.70;99.90
19397;DHT22;9834;48.076;11.878;2022-08-25T04:46:24;14.60;99.90
19397;DHT22;9834;48.076;11.878;2022-08-25T04:48:55;14.70;99.90
19397;DHT22;9834;48.076;11.878;2022-08-25T04:51:25;14.70;99.90
19397;DHT22;9834;48.076;11.878;2022-08-25T04:53:52;14.70;99.90
19397;DHT22;9834;48.076;11.878;2022-08-25T04:56:22;14.70;99.90
19397;DHT22;9834;48.076;11.878;2022-08-25T04:58:51;14.80;99.90
19397;DHT22;9834;48.076;11.878;2022-08-25T05:01:20;14.80;99.90
19397;DHT22;9834;48.076;11.878;2022-08-25T05:03:52;14.80;99.90
19397;DHT22;9834;48.076;11.878;2022-08-25T05:06:19;14.90;99.90
19397;DHT22;9834;48.076;11.878;2022-08-25T05:08:46;15.00;99.90
19397;DHT22;9834;48.076;11.878;2022-08-25T05:11:15;15.00;99.90
19397;DHT22;9834;48.076;11.878;2022-08-25T05:13:45;15.00;99.90
19397;DHT22;9834;48.076;11.878;2022-08-25T05:16:12;15.10;99.90
19397;DHT22;9834;48.076;11.878;2022-08-25T05:18:40;15.10;99.90
19397;DHT22;9834;48.076;11.878;2022-08-25T05:21:10;15.20;99.90
19397;DHT22;9834;48.076;11.878;2022-08-25T05:23:38;15.20;99.90
19397;DHT22;9834;48.076;11.878;2022-08-25T05:26:07;15.30;99.90
19397;DHT22;9834;48.076;11.878;2022-08-25T05:28:35;15.30;99.90
19397;DHT22;9834;48.076;11.878;2022-08-25T05:31:04;15.40;99.90
19397;DHT22;9834;48.076;11.878;2022-08-25T05:33:35;15.40;99.90
19397;DHT22;9834;48.076;11.878;2022-08-25T05:36:03;15.50;99.90
19397;DHT22;9834;48.076;11.878;2022-08-25T05:38:30;15.50;99.90
19397;DHT22;9834;48.076;11.878;2022-08-25T05:40:58;15.60;99.90
19397;DHT22;9834;48.076;11.878;2022-08-25T05:43:25;15.60;99.90
19397;DHT22;9834;48.076;11.878;2022-08-25T05:45:53;15.70;99.90
19397;DHT22;9834;48.076;11.878;2022-08-25T05:48:22;15.80;99.90
19397;DHT22;9834;48.076;11.878;2022-08-25T05:50:52;15.90;99.90
19397;DHT22;9834;48.076;11.878;2022-08-25T05:53:24;15.90;99.90
19397;DHT22;9834;48.076;11.878;2022-08-25T05:55:53;16.00;99.90
19397;DHT22;9834;48.076;11.878;2022-08-25T05:58:21;16.10;99.90
19397;DHT22;9834;48.076;11.878;2022-08-25T06:00:48;16.20;99.90
19397;DHT22;9834;48.076;11.878;2022-08-25T06:03:16;16.20;99.90
19397;DHT22;9834;48.076;11.878;2022-08-25T06:05:43;16.30;99.90
19397;DHT22;9834;48.076;11.878;2022-08-25T06:08:11;16.30;99.90
19397;DHT22;9834;48.076;11.878;2022-08-25T06:10:38;16.40;99.90
19397;DHT22;9834;48.076;11.878;2022-08-25T06:13:05;16.40;99.90
19397;DHT22;9834;48.076;11.878;2022-08-25T06:15:32;16.50;99.90
19397;DHT22;9834;48.076;11.878;2022-08-25T06:17:59;16.70;99.90
19397;DHT22;9834;48.076;11.878;2022-08-25T06:20:29;16.70;99.90
19397;DHT22;9834;48.076;11.878;2022-08-25T06:22:58;16.70;99.90
19397;DHT22;9834;48.076;11.878;2022-08-25T06:25:26;16.80;99.90
19397;DHT22;9834;48.076;11.878;2022-08-25T06:27:57;16.90;99.90
19397;DHT22;9834;48.076;11.878;2022-08-25T06:30:26;16.90;99.90
19397;DHT22;9834;48.076;11.878;2022-08-25T06:32:54;17.00;99.90
19397;DHT22;9834;48.076;11.878;2022-08-25T06:35:21;17.10;99.90
19397;DHT22;9834;48.076;11.878;2022-08-25T06:37:49;17.10;99.90
19397;DHT22;9834;48.076;11.878;2022-08-25T06:40:17;17.20;99.90
19397;DHT22;9834;48.076;11.878;2022-08-25T06:42:47;17.20;99.90
19397;DHT22;9834;48.076;11.878;2022-08-25T06:45:14;17.30;99.90
19397;DHT22;9834;48.076;11.878;2022-08-25T06:47:41;17.40;99.90
19397;DHT22;9834;48.076;11.878;2022-08-25T06:50:10;17.50;99.90
19397;DHT22;9834;48.076;11.878;2022-08-25T06:52:37;17.60;99.90
19397;DHT22;9834;48.076;11.878;2022-08-25T06:55:04;17.60;99.90
19397;DHT22;9834;48.076;11.878;2022-08-25T06:57:33;17.60;99.90
19397;DHT22;9834;48.076;11.878;2022-08-25T07:00:01;17.70;99.90
19397;DHT22;9834;48.076;11.878;2022-08-25T07:02:28;17.80;99.90
19397;DHT22;9834;48.076;11.878;2022-08-25T07:04:55;17.90;99.90
19397;DHT22;9834;48.076;11.878;2022-08-25T07:07:22;18.10;99.90
19397;DHT22;9834;48.076;11.878;2022-08-25T07:09:49;18.00;99.90
19397;DHT22;9834;48.076;11.878;2022-08-25T07:12:16;18.10;99.90
19397;DHT22;9834;48.076;11.878;2022-08-25T07:14:44;18.20;99.90
19397;DHT22;9834;48.076;11.878;2022-08-25T07:17:11;18.30;99.90
19397;DHT22;9834;48.076;11.878;2022-08-25T07:19:38;18.40;99.90
19397;DHT22;9834;48.076;11.878;2022-08-25T07:22:07;18.40;99.90
19397;DHT22;9834;48.076;11.878;2022-08-25T07:24:36;18.50;99.90
19397;DHT22;9834;48.076;11.878;2022-08-25T07:27:03;18.60;99.90
19397;DHT22;9834;48.076;11.878;2022-08-25T07:29:31;18.60;99.90
19397;DHT22;9834;48.076;11.878;2022-08-25T07:32:03;18.70;99.90
19397;DHT22;9834;48.076;11.878;2022-08-25T07:34:31;18.80;99.90
19397;DHT22;9834;48.076;11.878;2022-08-25T07:37:16;18.90;99.90
19397;DHT22;9834;48.076;11.878;2022-08-25T07:39:43;19.00;99.90
19397;DHT22;9834;48.076;11.878;2022-08-25T07:42:11;19.10;99.90
19397;DHT22;9834;48.076;11.878;2022-08-25T07:44:38;19.10;99.90
19397;DHT22;9834;48.076;11.878;2022-08-25T07:47:07;19.20;99.90
19397;DHT22;9834;48.076;11.878;2022-08-25T07:49:34;19.20;99.90
19397;DHT22;9834;48.076;11.878;2022-08-25T07:52:02;19.30;99.90
19397;DHT22;9834;48.076;11.878;2022-08-25T07:54:29;19.40;99.90
19397;DHT22;9834;48.076;11.878;2022-08-25T07:56:56;19.50;99.90
19397;DHT22;9834;48.076;11.878;2022-08-25T07:59:23;19.60;99.90
19397;DHT22;9834;48.076;11.878;2022-08-25T08:01:50;19.70;99.90
19397;DHT22;9834;48.076;11.878;2022-08-25T08:04:21;19.80;99.90
19397;DHT22;9834;48.076;11.878;2022-08-25T08:06:48;19.90;99.90
19397;DHT22;9834;48.076;11.878;2022-08-25T08:09:15;20.00;99.90
19397;DHT22;9834;48.076;11.878;2022-08-25T08:11:44;20.10;99.90
19397;DHT22;9834;48.076;11.878;2022-08-25T08:14:11;20.20;99.90
19397;DHT22;9834;48.076;11.878;2022-08-25T08:16:41;20.20;99.90
19397;DHT22;9834;48.076;11.878;2022-08-25T08:19:08;20.20;99.90
19397;DHT22;9834;48.076;11.878;2022-08-25T08:21:36;20.40;99.90
19397;DHT22;9834;48.076;11.878;2022-08-25T08:24:04;20.50;99.90
19397;DHT22;9834;48.076;11.878;2022-08-25T08:26:31;20.60;99.90
19397;DHT22;9834;48.076;11.878;2022-08-25T08:28:58;20.70;99.90
19397;DHT22;9834;48.076;11.878;2022-08-25T08:31:26;20.80;99.90
19397;DHT22;9834;48.076;11.878;2022-08-25T08:33:56;20.90;99.90
19397;DHT22;9834;48.076;11.878;2022-08-25T08:36:24;20.90;99.90
19397;DHT22;9834;48.076;11.878;2022-08-25T08:38:52;20.90;99.90
19397;DHT22;9834;48.076;11.878;2022-08-25T08:44:38;21.10;99.90
19397;DHT22;9834;48.076;11.878;2022-08-25T08:47:11;21.20;99.90
19397;DHT22;9834;48.076;11.878;2022-08-25T08:49:51;21.30;99.90
19397;DHT22;9834;48.076;11.878;2022-08-25T08:52:36;21.50;99.90
19397;DHT22;9834;48.076;11.878;2022-08-25T08:55:09;21.60;99.90
19397;DHT22;9834;48.076;11.878;2022-08-25T08:57:44;21.70;99.90
19397;DHT22;9834;48.076;11.878;2022-08-25T09:00:12;21.80;99.90
19397;DHT22;9834;48.076;11.878;2022-08-25T09:02:46;21.80;99.90
19397;DHT22;9834;48.076;11.878;2022-08-25T09:05:16;21.90;99.90
19397;DHT22;9834;48.076;11.878;2022-08-25T09:07:48;22.10;99.90
19397;DHT22;9834;48.076;11.878;2022-08-25T09:10:18;22.20;99.90
19397;DHT22;9834;48.076;11.878;2022-08-25T09:12:53;22.20;99.90
19397;DHT22;9834;48.076;11.878;2022-08-25T09:15:32;22.30;99.90
19397;DHT22;9834;48.076;11.878;2022-08-25T09:18:22;22.50;99.90
19397;DHT22;9834;48.076;11.878;2022-08-25T09:21:01;22.70;99.90
19397;DHT22;9834;48.076;11.878;2022-08-25T09:23:40;22.80;99.90
19397;DHT22;9834;48.076;11.878;2022-08-25T09:26:24;22.80;99.90
19397;DHT22;9834;48.076;11.878;2022-08-25T09:29:00;23.00;99.90
19397;DHT22;9834;48.076;11.878;2022-08-25T09:31:31;23.10;99.90
19397;DHT22;9834;48.076;11.878;2022-08-25T09:34:01;23.20;99.90
19397;DHT22;9834;48.076;11.878;2022-08-25T09:36:33;23.40;99.90
19397;DHT22;9834;48.076;11.878;2022-08-25T09:39:00;23.40;99.90
19397;DHT22;9834;48.076;11.878;2022-08-25T09:41:41;23.50;99.90
19397;DHT22;9834;48.076;11.878;2022-08-25T09:44:18;23.40;99.90
19397;DHT22;9834;48.076;11.878;2022-08-25T09:46:58;23.40;99.90
19397;DHT22;9834;48.076;11.878;2022-08-25T09:49:37;23.60;99.90
19397;DHT22;9834;48.076;11.878;2022-08-25T09:52:23;23.90;99.90
19397;DHT22;9834;48.076;11.878;2022-08-25T09:54:52;24.30;99.90
19397;DHT22;9834;48.076;11.878;2022-08-25T09:57:35;24.80;99.90
19397;DHT22;9834;48.076;11.878;2022-08-25T10:00:15;25.10;99.90
19397;DHT22;9834;48.076;11.878;2022-08-25T10:02:44;25.30;99.90
19397;DHT22;9834;48.076;11.878;2022-08-25T10:05:22;25.50;98.70
19397;DHT22;9834;48.076;11.878;2022-08-25T10:07:53;25.90;99.60
19397;DHT22;9834;48.076;11.878;2022-08-25T10:10:28;26.00;95.90
19397;DHT22;9834;48.076;11.878;2022-08-25T10:12:57;26.10;95.20
19397;DHT22;9834;48.076;11.878;2022-08-25T10:15:29;26.20;95.50
19397;DHT22;9834;48.076;11.878;2022-08-25T10:18:17;26.60;96.60
19397;DHT22;9834;48.076;11.878;2022-08-25T10:21:00;27.20;94.40
19397;DHT22;9834;48.076;11.878;2022-08-25T10:23:28;27.70;90.80
19397;DHT22;9834;48.076;11.878;2022-08-25T10:25:58;28.00;92.10
19397;DHT22;9834;48.076;11.878;2022-08-25T10:28:32;28.40;90.30
19397;DHT22;9834;48.076;11.878;2022-08-25T10:31:08;28.80;89.30
19397;DHT22;9834;48.076;11.878;2022-08-25T10:33:48;28.90;84.40
19397;DHT22;9834;48.076;11.878;2022-08-25T10:36:21;28.90;81.60
19397;DHT22;9834;48.076;11.878;2022-08-25T10:38:53;28.70;84.60
19397;DHT22;9834;48.076;11.878;2022-08-25T10:44:22;29.00;79.30
19397;DHT22;9834;48.076;11.878;2022-08-25T10:47:33;29.00;80.70
19397;DHT22;9834;48.076;11.878;2022-08-25T10:50:13;29.10;79.00
19397;DHT22;9834;48.076;11.878;2022-08-25T10:52:56;29.20;78.90
19397;DHT22;9834;48.076;11.878;2022-08-25T10:55:36;29.40;83.40
19397;DHT22;9834;48.076;11.878;2022-08-25T10:58:12;29.40;77.50
19397;DHT22;9834;48.076;11.878;2022-08-25T11:00:53;29.00;77.50
19397;DHT22;9834;48.076;11.878;2022-08-25T11:03:33;29.10;80.20
19397;DHT22;9834;48.076;11.878;2022-08-25T11:06:06;30.00;76.50
19397;DHT22;9834;48.076;11.878;2022-08-25T11:08:39;31.00;71.90
19397;DHT22;9834;48.076;11.878;2022-08-25T11:11:09;30.80;68.90
19397;DHT22;9834;48.076;11.878;2022-08-25T11:13:46;31.30;69.50
19397;DHT22;9834;48.076;11.878;2022-08-25T11:16:19;30.90;68.20
19397;DHT22;9834;48.076;11.878;2022-08-25T11:18:51;30.20;68.80
19397;DHT22;9834;48.076;11.878;2022-08-25T11:21:24;29.40;69.70
19397;DHT22;9834;48.076;11.878;2022-08-25T11:23:57;29.00;72.70
19397;DHT22;9834;48.076;11.878;2022-08-25T11:26:27;29.00;75.10
19397;DHT22;9834;48.076;11.878;2022-08-25T11:29:02;29.20;74.70
19397;DHT22;9834;48.076;11.878;2022-08-25T11:31:38;29.90;72.60
19397;DHT22;9834;48.076;11.878;2022-08-25T11:34:08;30.60;70.50
19397;DHT22;9834;48.076;11.878;2022-08-25T11:36:41;30.30;68.90
19397;DHT22;9834;48.076;11.878;2022-08-25T11:39:14;30.40;67.00
19397;DHT22;9834;48.076;11.878;2022-08-25T11:41:52;30.30;69.00
19397;DHT22;9834;48.076;11.878;2022-08-25T11:44:39;30.60;67.50
19397;DHT22;9834;48.076;11.878;2022-08-25T11:47:31;31.30;64.90
19397;DHT22;9834;48.076;11.878;2022-08-25T11:50:03;31.00;66.40
19397;DHT22;9834;48.076;11.878;2022-08-25T11:52:50;31.20;65.70
19397;DHT22;9834;48.076;11.878;2022-08-25T11:55:24;31.30;63.30
19397;DHT22;9834;48.076;11.878;2022-08-25T12:00:40;31.10;63.40
19397;DHT22;9834;48.076;11.878;2022-08-25T12:06:22;30.60;68.50
19397;DHT22;9834;48.076;11.878;2022-08-25T12:11:52;32.00;64.80
19397;DHT22;9834;48.076;11.878;2022-08-25T12:14:50;33.50;59.50
19397;DHT22;9834;48.076;11.878;2022-08-25T12:17:25;35.10;57.00
19397;DHT22;9834;48.076;11.878;2022-08-25T12:19:57;36.10;55.00
19397;DHT22;9834;48.076;11.878;2022-08-25T12:22:53;36.90;51.00
19397;DHT22;9834;48.076;11.878;2022-08-25T12:25:44;36.10;52.10
19397;DHT22;9834;48.076;11.878;2022-08-25T12:28:41;36.30;52.90
19397;DHT22;9834;48.076;11.878;2022-08-25T12:31:19;37.50;50.10
19397;DHT22;9834;48.076;11.878;2022-08-25T12:34:01;37.90;48.00
19397;DHT22;9834;48.076;11.878;2022-08-25T12:36:34;37.50;47.70
19397;DHT22;9834;48.076;11.878;2022-08-25T12:39:16;37.30;48.00
19397;DHT22;9834;48.076;11.878;2022-08-25T12:41:55;38.00;46.70
19397;DHT22;9834;48.076;11.878;2022-08-25T12:44:43;37.40;46.50
19397;DHT22;9834;48.076;11.878;2022-08-25T12:47:30;36.20;48.20
19397;DHT22;9834;48.076;11.878;2022-08-25T12:50:36;35.40;49.20
19397;DHT22;9834;48.076;11.878;2022-08-25T12:53:10;35.50;50.20
19397;DHT22;9834;48.076;11.878;2022-08-25T12:55:42;36.40;48.70
19397;DHT22;9834;48.076;11.878;2022-08-25T12:58:10;37.20;46.80
19397;DHT22;9834;48.076;11.878;2022-08-25T13:00:49;38.00;46.70
19397;DHT22;9834;48.076;11.878;2022-08-25T13:03:41;39.30;44.00
19397;DHT22;9834;48.076;11.878;2022-08-25T13:06:34;40.80;41.90
19397;DHT22;9834;48.076;11.878;2022-08-25T13:09:26;40.80;41.60
19397;DHT22;9834;48.076;11.878;2022-08-25T13:12:04;39.70;42.10
19397;DHT22;9834;48.076;11.878;2022-08-25T13:14:38;39.50;42.20
19397;DHT22;9834;48.076;11.878;2022-08-25T13:17:05;39.80;41.40
19397;DHT22;9834;48.076;11.878;2022-08-25T13:19:33;39.10;41.90
19397;DHT22;9834;48.076;11.878;2022-08-25T13:22:09;37.50;45.00
19397;DHT22;9834;48.076;11.878;2022-08-25T13:24:40;37.70;46.50
19397;DHT22;9834;48.076;11.878;2022-08-25T13:27:19;38.20;43.50
19397;DHT22;9834;48.076;11.878;2022-08-25T13:29:52;39.40;45.10
19397;DHT22;9834;48.076;11.878;2022-08-25T13:32:26;40.70;41.10
19397;DHT22;9834;48.076;11.878;2022-08-25T13:35:10;40.70;40.10
19397;DHT22;9834;48.076;11.878;2022-08-25T13:37:37;41.60;39.60
19397;DHT22;9834;48.076;11.878;2022-08-25T13:40:09;41.70;39.30
19397;DHT22;9834;48.076;11.878;2022-08-25T13:42:39;43.40;38.00
19397;DHT22;9834;48.076;11.878;2022-08-25T13:45:13;44.60;35.20
19397;DHT22;9834;48.076;11.878;2022-08-25T13:47:42;44.80;34.20
19397;DHT22;9834;48.076;11.878;2022-08-25T13:50:21;44.50;34.80
19397;DHT22;9834;48.076;11.878;2022-08-25T13:52:56;43.00;35.40
19397;DHT22;9834;48.076;11.878;2022-08-25T13:55:27;41.20;38.00
19397;DHT22;9834;48.076;11.878;2022-08-25T13:58:00;39.10;41.00
19397;DHT22;9834;48.076;11.878;2022-08-25T14:00:31;37.30;43.60
19397;DHT22;9834;48.076;11.878;2022-08-25T14:03:00;36.10;44.90
19397;DHT22;9834;48.076;11.878;2022-08-25T14:05:36;35.70;46.70
19397;DHT22;9834;48.076;11.878;2022-08-25T14:08:05;35.20;47.50
19397;DHT22;9834;48.076;11.878;2022-08-25T14:10:37;34.70;48.50
19397;DHT22;9834;48.076;11.878;2022-08-25T14:13:29;34.20;47.60
19397;DHT22;9834;48.076;11.878;2022-08-25T14:16:07;33.60;50.40
19397;DHT22;9834;48.076;11.878;2022-08-25T14:18:34;33.50;49.50
19397;DHT22;9834;48.076;11.878;2022-08-25T14:21:08;33.30;50.80
19397;DHT22;9834;48.076;11.878;2022-08-25T14:23:36;33.30;50.10
19397;DHT22;9834;48.076;11.878;2022-08-25T14:26:04;32.70;51.50
19397;DHT22;9834;48.076;11.878;2022-08-25T14:28:34;32.40;53.40
19397;DHT22;9834;48.076;11.878;2022-08-25T14:31:05;32.10;55.40
19397;DHT22;9834;48.076;11.878;2022-08-25T14:33:37;31.90;55.80
19397;DHT22;9834;48.076;11.878;2022-08-25T14:36:06;31.90;55.00
19397;DHT22;9834;48.076;11.878;2022-08-25T14:38:35;32.00;55.00
19397;DHT22;9834;48.076;11.878;2022-08-25T14:41:04;31.90;54.00
19397;DHT22;9834;48.076;11.878;2022-08-25T14:43:31;31.90;55.00
19397;DHT22;9834;48.076;11.878;2022-08-25T14:46:02;31.80;56.50
19397;DHT22;9834;48.076;11.878;2022-08-25T14:48:37;31.70;55.80
19397;DHT22;9834;48.076;11.878;2022-08-25T14:51:05;31.70;56.90
19397;DHT22;9834;48.076;11.878;2022-08-25T14:53:33;31.40;56.10
19397;DHT22;9834;48.076;11.878;2022-08-25T14:56:01;30.80;57.80
19397;DHT22;9834;48.076;11.878;2022-08-25T14:58:28;30.70;58.50
19397;DHT22;9834;48.076;11.878;2022-08-25T15:00:55;30.70;57.50
19397;DHT22;9834;48.076;11.878;2022-08-25T15:03:27;30.60;59.00
19397;DHT22;9834;48.076;11.878;2022-08-25T15:05:55;31.00;59.00
19397;DHT22;9834;48.076;11.878;2022-08-25T15:08:22;31.60;57.10
19397;DHT22;9834;48.076;11.878;2022-08-25T15:11:07;31.80;56.50
19397;DHT22;9834;48.076;11.878;2022-08-25T15:13:34;32.00;55.40
19397;DHT22;9834;48.076;11.878;2022-08-25T15:16:01;32.00;56.70
19397;DHT22;9834;48.076;11.878;2022-08-25T15:18:30;32.10;55.90
19397;DHT22;9834;48.076;11.878;2022-08-25T15:20:57;33.20;55.90
19397;DHT22;9834;48.076;11.878;2022-08-25T15:23:24;35.40;52.10
19397;DHT22;9834;48.076;11.878;2022-08-25T15:25:53;37.90;45.70
19397;DHT22;9834;48.076;11.878;2022-08-25T15:28:21;39.20;41.50
19397;DHT22;9834;48.076;11.878;2022-08-25T15:30:48;38.70;43.30
19397;DHT22;9834;48.076;11.878;2022-08-25T15:33:15;37.40;44.50
19397;DHT22;9834;48.076;11.878;2022-08-25T15:35:46;36.10;47.70
19397;DHT22;9834;48.076;11.878;2022-08-25T15:38:15;35.00;50.30
19397;DHT22;9834;48.076;11.878;2022-08-25T15:40:43;34.60;51.00
19397;DHT22;9834;48.076;11.878;2022-08-25T15:43:10;34.10;52.20
19397;DHT22;9834;48.076;11.878;2022-08-25T15:45:37;33.40;52.80
19397;DHT22;9834;48.076;11.878;2022-08-25T15:48:04;32.90;53.50
19397;DHT22;9834;48.076;11.878;2022-08-25T15:50:31;32.90;55.20
19397;DHT22;9834;48.076;11.878;2022-08-25T15:53:00;33.00;54.70
19397;DHT22;9834;48.076;11.878;2022-08-25T15:55:30;32.70;53.30
19397;DHT22;9834;48.076;11.878;2022-08-25T15:57:57;32.80;54.70
19397;DHT22;9834;48.076;11.878;2022-08-25T16:00:25;32.50;57.10
19397;DHT22;9834;48.076;11.878;2022-08-25T16:02:52;32.20;56.10
19397;DHT22;9834;48.076;11.878;2022-08-25T16:05:19;31.90;58.30
19397;DHT22;9834;48.076;11.878;2022-08-25T16:07:46;31.80;57.90
19397;DHT22;9834;48.076;11.878;2022-08-25T16:10:15;31.70;58.20
19397;DHT22;9834;48.076;11.878;2022-08-25T16:12:42;31.60;58.00
19397;DHT22;9834;48.076;11.878;2022-08-25T16:15:10;31.50;59.00